Terminal Aerodrome Forecast
Issued by NWS

Home | Current Version | Previous Version | Text Only | Print | Product List | Glossary On
Versions: 1 2 3 4 5 6 7 8 9 10 11 12 13
000
FTUS45 KREV 261100
TAFMMH
TAF
KMMH 261127Z 2612/2712 VRB03KT P6SM BKN200
     FM261900 13008KT P6SM SCT140 BKN180
     FM270200 VRB04KT P6SM BKN070 OVC120
     FM270800 VRB03KT P6SM VCSH SCT030 OVC060
      TEMPO 2710/2712 4SM -SHSN SCT015 OVC030
      AMD NOT SKED 2612/2614=

USA.gov is the U.S. government's official web portal to all federal, state and local government web resources and services.